sensor_id;sensor_type;location;lat;lon;timestamp;P1;durP1;ratioP1;P2;durP2;ratioP2
75971;SDS011;64651;47.540;19.088;2023-03-19T00:03:24;22.20;;;10.48;;
75971;SDS011;64651;47.540;19.088;2023-03-19T00:08:27;24.33;;;10.55;;
75971;SDS011;64651;47.540;19.088;2023-03-19T00:13:29;23.73;;;10.70;;
75971;SDS011;64651;47.540;19.088;2023-03-19T00:18:32;24.73;;;11.50;;
75971;SDS011;64651;47.540;19.088;2023-03-19T00:23:34;23.35;;;10.25;;
75971;SDS011;64651;47.540;19.088;2023-03-19T00:28:37;21.33;;;10.13;;
75971;SDS011;64651;47.540;19.088;2023-03-19T00:33:39;22.95;;;10.98;;
75971;SDS011;64651;47.540;19.088;2023-03-19T00:38:42;25.10;;;10.63;;
75971;SDS011;64651;47.540;19.088;2023-03-19T00:43:46;23.20;;;10.70;;
75971;SDS011;64651;47.540;19.088;2023-03-19T00:48:48;25.95;;;10.68;;
75971;SDS011;64651;47.540;19.088;2023-03-19T00:53:54;23.62;;;10.85;;
75971;SDS011;64651;47.540;19.088;2023-03-19T00:58:56;25.67;;;12.07;;
75971;SDS011;64651;47.540;19.088;2023-03-19T01:03:59;23.70;;;10.90;;
75971;SDS011;64651;47.540;19.088;2023-03-19T01:09:01;26.30;;;11.70;;
75971;SDS011;64651;47.540;19.088;2023-03-19T01:14:03;27.05;;;12.32;;
75971;SDS011;64651;47.540;19.088;2023-03-19T01:19:06;23.62;;;10.95;;
75971;SDS011;64651;47.540;19.088;2023-03-19T01:24:08;29.27;;;11.35;;
75971;SDS011;64651;47.540;19.088;2023-03-19T01:29:11;26.67;;;11.60;;
75971;SDS011;64651;47.540;19.088;2023-03-19T01:34:13;25.15;;;11.20;;
75971;SDS011;64651;47.540;19.088;2023-03-19T01:39:15;24.48;;;11.43;;
75971;SDS011;64651;47.540;19.088;2023-03-19T01:44:24;24.90;;;10.32;;
75971;SDS011;64651;47.540;19.088;2023-03-19T01:49:28;24.27;;;11.10;;
75971;SDS011;64651;47.540;19.088;2023-03-19T01:54:32;24.40;;;10.83;;
75971;SDS011;64651;47.540;19.088;2023-03-19T01:59:35;27.42;;;11.80;;
75971;SDS011;64651;47.540;19.088;2023-03-19T02:04:41;23.92;;;10.77;;
75971;SDS011;64651;47.540;19.088;2023-03-19T02:09:46;26.05;;;11.32;;
75971;SDS011;64651;47.540;19.088;2023-03-19T02:14:48;25.45;;;11.35;;
75971;SDS011;64651;47.540;19.088;2023-03-19T02:20:15;24.17;;;10.30;;
75971;SDS011;64651;47.540;19.088;2023-03-19T02:30:52;25.48;;;9.95;;
75971;SDS011;64651;47.540;19.088;2023-03-19T02:35:54;24.75;;;10.15;;
75971;SDS011;64651;47.540;19.088;2023-03-19T02:40:59;23.58;;;9.95;;
75971;SDS011;64651;47.540;19.088;2023-03-19T02:46:06;24.33;;;10.13;;
75971;SDS011;64651;47.540;19.088;2023-03-19T02:51:11;23.23;;;10.38;;
75971;SDS011;64651;47.540;19.088;2023-03-19T02:56:14;24.12;;;9.95;;
75971;SDS011;64651;47.540;19.088;2023-03-19T03:01:16;21.70;;;9.32;;
75971;SDS011;64651;47.540;19.088;2023-03-19T03:06:20;22.48;;;9.45;;
75971;SDS011;64651;47.540;19.088;2023-03-19T03:11:22;23.43;;;9.77;;
75971;SDS011;64651;47.540;19.088;2023-03-19T03:16:24;24.27;;;9.73;;
75971;SDS011;64651;47.540;19.088;2023-03-19T03:21:26;25.98;;;9.80;;
75971;SDS011;64651;47.540;19.088;2023-03-19T03:26:29;22.83;;;9.13;;
75971;SDS011;64651;47.540;19.088;2023-03-19T03:31:31;21.23;;;9.40;;
75971;SDS011;64651;47.540;19.088;2023-03-19T03:36:34;22.80;;;9.80;;
75971;SDS011;64651;47.540;19.088;2023-03-19T03:41:36;22.20;;;9.82;;
75971;SDS011;64651;47.540;19.088;2023-03-19T03:46:38;22.23;;;9.45;;
75971;SDS011;64651;47.540;19.088;2023-03-19T03:51:40;22.45;;;9.77;;
75971;SDS011;64651;47.540;19.088;2023-03-19T03:56:43;23.42;;;9.32;;
75971;SDS011;64651;47.540;19.088;2023-03-19T04:01:45;22.63;;;8.90;;
75971;SDS011;64651;47.540;19.088;2023-03-19T04:06:47;21.62;;;9.10;;
75971;SDS011;64651;47.540;19.088;2023-03-19T04:11:49;23.05;;;9.15;;
75971;SDS011;64651;47.540;19.088;2023-03-19T04:16:52;21.33;;;8.98;;
75971;SDS011;64651;47.540;19.088;2023-03-19T04:21:54;27.20;;;10.10;;
75971;SDS011;64651;47.540;19.088;2023-03-19T04:26:57;27.27;;;10.90;;
75971;SDS011;64651;47.540;19.088;2023-03-19T04:31:59;25.27;;;10.35;;
75971;SDS011;64651;47.540;19.088;2023-03-19T04:37:01;25.85;;;10.40;;
75971;SDS011;64651;47.540;19.088;2023-03-19T04:42:04;30.45;;;10.95;;
75971;SDS011;64651;47.540;19.088;2023-03-19T04:47:07;29.00;;;11.75;;
75971;SDS011;64651;47.540;19.088;2023-03-19T04:52:11;24.47;;;11.07;;
75971;SDS011;64651;47.540;19.088;2023-03-19T04:57:13;25.00;;;11.05;;
75971;SDS011;64651;47.540;19.088;2023-03-19T05:02:15;23.75;;;9.82;;
75971;SDS011;64651;47.540;19.088;2023-03-19T05:07:17;28.52;;;11.50;;
75971;SDS011;64651;47.540;19.088;2023-03-19T05:12:20;27.55;;;11.07;;
75971;SDS011;64651;47.540;19.088;2023-03-19T05:17:23;27.23;;;10.93;;
75971;SDS011;64651;47.540;19.088;2023-03-19T05:22:28;26.33;;;11.75;;
75971;SDS011;64651;47.540;19.088;2023-03-19T05:27:30;29.10;;;11.95;;
75971;SDS011;64651;47.540;19.088;2023-03-19T05:37:53;28.35;;;12.50;;
75971;SDS011;64651;47.540;19.088;2023-03-19T05:42:56;28.63;;;12.23;;
75971;SDS011;64651;47.540;19.088;2023-03-19T05:47:58;28.87;;;13.40;;
75971;SDS011;64651;47.540;19.088;2023-03-19T05:53:00;28.50;;;13.60;;
75971;SDS011;64651;47.540;19.088;2023-03-19T05:58:02;27.45;;;11.82;;
75971;SDS011;64651;47.540;19.088;2023-03-19T06:03:04;26.83;;;12.13;;
75971;SDS011;64651;47.540;19.088;2023-03-19T06:08:07;28.83;;;12.30;;
75971;SDS011;64651;47.540;19.088;2023-03-19T06:13:09;28.33;;;12.02;;
75971;SDS011;64651;47.540;19.088;2023-03-19T06:18:11;27.42;;;11.45;;
75971;SDS011;64651;47.540;19.088;2023-03-19T06:23:13;25.77;;;11.25;;
75971;SDS011;64651;47.540;19.088;2023-03-19T06:28:17;25.30;;;11.05;;
75971;SDS011;64651;47.540;19.088;2023-03-19T06:33:19;24.10;;;9.80;;
75971;SDS011;64651;47.540;19.088;2023-03-19T06:38:21;21.02;;;9.07;;
75971;SDS011;64651;47.540;19.088;2023-03-19T06:43:26;19.95;;;8.13;;
75971;SDS011;64651;47.540;19.088;2023-03-19T06:48:28;17.42;;;7.90;;
75971;SDS011;64651;47.540;19.088;2023-03-19T06:53:30;19.23;;;8.43;;
75971;SDS011;64651;47.540;19.088;2023-03-19T06:58:33;18.87;;;8.43;;
75971;SDS011;64651;47.540;19.088;2023-03-19T07:03:36;19.45;;;8.65;;
75971;SDS011;64651;47.540;19.088;2023-03-19T07:08:39;20.25;;;8.52;;
75971;SDS011;64651;47.540;19.088;2023-03-19T07:13:46;13.85;;;5.78;;
75971;SDS011;64651;47.540;19.088;2023-03-19T07:18:48;13.20;;;5.55;;
75971;SDS011;64651;47.540;19.088;2023-03-19T07:23:51;14.33;;;5.60;;
75971;SDS011;64651;47.540;19.088;2023-03-19T07:28:54;12.37;;;5.00;;
75971;SDS011;64651;47.540;19.088;2023-03-19T07:33:56;12.43;;;5.20;;
75971;SDS011;64651;47.540;19.088;2023-03-19T07:38:58;14.07;;;5.03;;
75971;SDS011;64651;47.540;19.088;2023-03-19T07:44:01;11.50;;;4.87;;
75971;SDS011;64651;47.540;19.088;2023-03-19T07:49:03;11.47;;;4.30;;
75971;SDS011;64651;47.540;19.088;2023-03-19T07:54:06;13.57;;;4.93;;
75971;SDS011;64651;47.540;19.088;2023-03-19T07:59:08;12.85;;;4.90;;
75971;SDS011;64651;47.540;19.088;2023-03-19T08:04:12;12.50;;;4.78;;
75971;SDS011;64651;47.540;19.088;2023-03-19T08:09:14;11.07;;;4.37;;
75971;SDS011;64651;47.540;19.088;2023-03-19T08:14:16;12.43;;;4.87;;
75971;SDS011;64651;47.540;19.088;2023-03-19T08:19:23;10.95;;;4.68;;
75971;SDS011;64651;47.540;19.088;2023-03-19T08:24:25;10.90;;;4.75;;
75971;SDS011;64651;47.540;19.088;2023-03-19T08:29:27;10.07;;;4.55;;
75971;SDS011;64651;47.540;19.088;2023-03-19T08:34:30;11.38;;;5.20;;
75971;SDS011;64651;47.540;19.088;2023-03-19T08:39:33;12.33;;;5.10;;
75971;SDS011;64651;47.540;19.088;2023-03-19T08:44:36;13.27;;;5.05;;
75971;SDS011;64651;47.540;19.088;2023-03-19T08:49:38;11.63;;;6.05;;
75971;SDS011;64651;47.540;19.088;2023-03-19T08:54:40;15.73;;;6.40;;
75971;SDS011;64651;47.540;19.088;2023-03-19T08:59:43;12.50;;;6.53;;
75971;SDS011;64651;47.540;19.088;2023-03-19T09:04:45;12.00;;;6.53;;
75971;SDS011;64651;47.540;19.088;2023-03-19T09:09:47;12.43;;;6.87;;
75971;SDS011;64651;47.540;19.088;2023-03-19T09:14:50;12.15;;;6.95;;
75971;SDS011;64651;47.540;19.088;2023-03-19T09:19:52;12.03;;;7.10;;
75971;SDS011;64651;47.540;19.088;2023-03-19T09:24:54;12.85;;;7.12;;
75971;SDS011;64651;47.540;19.088;2023-03-19T09:29:56;11.70;;;7.13;;
75971;SDS011;64651;47.540;19.088;2023-03-19T09:34:59;12.45;;;6.97;;
75971;SDS011;64651;47.540;19.088;2023-03-19T09:40:02;15.07;;;7.97;;
75971;SDS011;64651;47.540;19.088;2023-03-19T09:45:15;11.93;;;7.43;;
75971;SDS011;64651;47.540;19.088;2023-03-19T09:50:20;12.07;;;8.05;;
75971;SDS011;64651;47.540;19.088;2023-03-19T10:00:39;12.65;;;7.20;;
75971;SDS011;64651;47.540;19.088;2023-03-19T10:05:56;12.70;;;8.02;;
75971;SDS011;64651;47.540;19.088;2023-03-19T10:16:30;13.48;;;8.82;;
75971;SDS011;64651;47.540;19.088;2023-03-19T10:21:36;11.43;;;8.47;;
75971;SDS011;64651;47.540;19.088;2023-03-19T10:26:43;12.90;;;9.10;;
75971;SDS011;64651;47.540;19.088;2023-03-19T10:32:05;13.35;;;9.07;;
75971;SDS011;64651;47.540;19.088;2023-03-19T10:37:41;13.87;;;8.57;;
75971;SDS011;64651;47.540;19.088;2023-03-19T10:42:46;13.50;;;8.38;;
75971;SDS011;64651;47.540;19.088;2023-03-19T10:48:06;12.90;;;8.47;;
75971;SDS011;64651;47.540;19.088;2023-03-19T10:58:35;11.80;;;9.15;;
75971;SDS011;64651;47.540;19.088;2023-03-19T11:03:39;12.23;;;9.27;;
75971;SDS011;64651;47.540;19.088;2023-03-19T11:13:58;11.63;;;8.80;;
75971;SDS011;64651;47.540;19.088;2023-03-19T11:19:14;12.88;;;9.68;;
75971;SDS011;64651;47.540;19.088;2023-03-19T11:24:20;13.30;;;10.15;;
75971;SDS011;64651;47.540;19.088;2023-03-19T11:29:22;12.37;;;9.20;;
75971;SDS011;64651;47.540;19.088;2023-03-19T11:45:12;12.60;;;8.48;;
75971;SDS011;64651;47.540;19.088;2023-03-19T12:12:38;11.43;;;9.43;;
75971;SDS011;64651;47.540;19.088;2023-03-19T12:34:44;11.97;;;7.63;;
75971;SDS011;64651;47.540;19.088;2023-03-19T12:40:05;11.35;;;8.77;;
75971;SDS011;64651;47.540;19.088;2023-03-19T12:50:46;12.70;;;9.10;;
75971;SDS011;64651;47.540;19.088;2023-03-19T12:55:54;11.20;;;8.07;;
75971;SDS011;64651;47.540;19.088;2023-03-19T13:01:06;12.40;;;8.27;;
75971;SDS011;64651;47.540;19.088;2023-03-19T13:06:18;11.02;;;7.70;;
75971;SDS011;64651;47.540;19.088;2023-03-19T13:16:58;11.70;;;8.07;;
75971;SDS011;64651;47.540;19.088;2023-03-19T13:22:30;10.30;;;7.70;;
75971;SDS011;64651;47.540;19.088;2023-03-19T13:27:35;10.67;;;8.30;;
75971;SDS011;64651;47.540;19.088;2023-03-19T13:37:43;11.98;;;7.70;;
75971;SDS011;64651;47.540;19.088;2023-03-19T13:42:45;11.77;;;7.10;;
75971;SDS011;64651;47.540;19.088;2023-03-19T13:47:57;11.38;;;6.50;;
75971;SDS011;64651;47.540;19.088;2023-03-19T13:53:39;10.97;;;6.07;;
75971;SDS011;64651;47.540;19.088;2023-03-19T13:58:44;10.38;;;5.97;;
75971;SDS011;64651;47.540;19.088;2023-03-19T14:03:58;11.98;;;6.70;;
75971;SDS011;64651;47.540;19.088;2023-03-19T14:09:03;10.90;;;6.00;;
75971;SDS011;64651;47.540;19.088;2023-03-19T14:14:07;10.82;;;6.70;;
75971;SDS011;64651;47.540;19.088;2023-03-19T14:19:16;11.87;;;6.33;;
75971;SDS011;64651;47.540;19.088;2023-03-19T14:29:52;12.85;;;7.45;;
75971;SDS011;64651;47.540;19.088;2023-03-19T14:34:56;11.60;;;6.17;;
75971;SDS011;64651;47.540;19.088;2023-03-19T14:40:43;11.65;;;6.05;;
75971;SDS011;64651;47.540;19.088;2023-03-19T14:45:45;11.80;;;6.40;;
75971;SDS011;64651;47.540;19.088;2023-03-19T14:56:36;11.10;;;5.55;;
75971;SDS011;64651;47.540;19.088;2023-03-19T15:01:39;10.93;;;6.37;;
75971;SDS011;64651;47.540;19.088;2023-03-19T15:06:56;10.70;;;5.93;;
75971;SDS011;64651;47.540;19.088;2023-03-19T15:17:32;12.00;;;6.75;;
75971;SDS011;64651;47.540;19.088;2023-03-19T15:22:38;11.77;;;6.57;;
75971;SDS011;64651;47.540;19.088;2023-03-19T15:27:41;10.20;;;6.23;;
75971;SDS011;64651;47.540;19.088;2023-03-19T15:32:43;10.25;;;6.32;;
75971;SDS011;64651;47.540;19.088;2023-03-19T15:38:06;10.80;;;5.97;;
75971;SDS011;64651;47.540;19.088;2023-03-19T15:43:11;9.65;;;5.47;;
75971;SDS011;64651;47.540;19.088;2023-03-19T15:53:30;11.67;;;5.90;;
75971;SDS011;64651;47.540;19.088;2023-03-19T15:58:38;12.55;;;5.55;;
75971;SDS011;64651;47.540;19.088;2023-03-19T16:03:44;10.30;;;5.00;;
75971;SDS011;64651;47.540;19.088;2023-03-19T16:08:51;10.20;;;5.10;;
75971;SDS011;64651;47.540;19.088;2023-03-19T16:13:55;10.55;;;5.37;;
75971;SDS011;64651;47.540;19.088;2023-03-19T16:24:32;12.13;;;5.72;;
75971;SDS011;64651;47.540;19.088;2023-03-19T16:29:57;10.53;;;5.30;;
75971;SDS011;64651;47.540;19.088;2023-03-19T16:35:04;13.90;;;5.30;;
75971;SDS011;64651;47.540;19.088;2023-03-19T16:45:27;14.07;;;5.40;;
75971;SDS011;64651;47.540;19.088;2023-03-19T16:50:32;15.60;;;6.37;;
75971;SDS011;64651;47.540;19.088;2023-03-19T16:55:37;20.07;;;5.80;;
75971;SDS011;64651;47.540;19.088;2023-03-19T17:00:39;16.20;;;6.00;;
75971;SDS011;64651;47.540;19.088;2023-03-19T17:05:45;20.88;;;6.80;;
75971;SDS011;64651;47.540;19.088;2023-03-19T17:10:49;17.97;;;6.80;;
75971;SDS011;64651;47.540;19.088;2023-03-19T17:15:58;14.98;;;5.82;;
75971;SDS011;64651;47.540;19.088;2023-03-19T17:21:07;19.67;;;6.97;;
75971;SDS011;64651;47.540;19.088;2023-03-19T17:26:13;14.35;;;7.22;;
75971;SDS011;64651;47.540;19.088;2023-03-19T17:31:24;15.63;;;7.22;;
75971;SDS011;64651;47.540;19.088;2023-03-19T17:36:30;16.57;;;7.30;;
75971;SDS011;64651;47.540;19.088;2023-03-19T17:41:33;17.58;;;6.75;;
75971;SDS011;64651;47.540;19.088;2023-03-19T17:46:37;16.03;;;7.47;;
75971;SDS011;64651;47.540;19.088;2023-03-19T17:51:42;17.30;;;7.32;;
75971;SDS011;64651;47.540;19.088;2023-03-19T17:56:44;16.87;;;7.22;;
75971;SDS011;64651;47.540;19.088;2023-03-19T18:01:46;15.37;;;7.63;;
75971;SDS011;64651;47.540;19.088;2023-03-19T18:06:49;15.73;;;7.32;;
75971;SDS011;64651;47.540;19.088;2023-03-19T18:11:55;14.93;;;7.43;;
75971;SDS011;64651;47.540;19.088;2023-03-19T18:16:57;20.25;;;8.57;;
75971;SDS011;64651;47.540;19.088;2023-03-19T18:21:59;19.30;;;8.75;;
75971;SDS011;64651;47.540;19.088;2023-03-19T18:27:01;19.87;;;9.97;;
75971;SDS011;64651;47.540;19.088;2023-03-19T18:32:05;20.98;;;10.30;;
75971;SDS011;64651;47.540;19.088;2023-03-19T18:37:16;21.37;;;10.37;;
75971;SDS011;64651;47.540;19.088;2023-03-19T18:42:19;19.75;;;10.70;;
75971;SDS011;64651;47.540;19.088;2023-03-19T18:47:21;25.88;;;11.88;;
75971;SDS011;64651;47.540;19.088;2023-03-19T18:52:23;24.77;;;11.50;;
75971;SDS011;64651;47.540;19.088;2023-03-19T18:57:25;22.73;;;10.68;;
75971;SDS011;64651;47.540;19.088;2023-03-19T19:02:32;22.77;;;11.50;;
75971;SDS011;64651;47.540;19.088;2023-03-19T19:07:35;21.75;;;10.60;;
75971;SDS011;64651;47.540;19.088;2023-03-19T19:12:40;24.63;;;11.07;;
75971;SDS011;64651;47.540;19.088;2023-03-19T19:17:45;23.47;;;11.20;;
75971;SDS011;64651;47.540;19.088;2023-03-19T19:22:48;23.65;;;11.40;;
75971;SDS011;64651;47.540;19.088;2023-03-19T19:28:12;24.70;;;11.90;;
75971;SDS011;64651;47.540;19.088;2023-03-19T19:33:21;19.67;;;11.00;;
75971;SDS011;64651;47.540;19.088;2023-03-19T19:38:29;20.10;;;10.77;;
75971;SDS011;64651;47.540;19.088;2023-03-19T19:43:31;21.30;;;10.60;;
75971;SDS011;64651;47.540;19.088;2023-03-19T19:48:33;24.55;;;10.93;;
75971;SDS011;64651;47.540;19.088;2023-03-19T19:53:36;20.60;;;10.60;;
75971;SDS011;64651;47.540;19.088;2023-03-19T19:58:39;21.30;;;11.48;;
75971;SDS011;64651;47.540;19.088;2023-03-19T20:03:42;24.08;;;11.48;;
75971;SDS011;64651;47.540;19.088;2023-03-19T20:08:45;23.60;;;11.10;;
75971;SDS011;64651;47.540;19.088;2023-03-19T20:13:51;21.12;;;9.90;;
75971;SDS011;64651;47.540;19.088;2023-03-19T20:18:56;22.73;;;11.53;;
75971;SDS011;64651;47.540;19.088;2023-03-19T20:23:58;24.77;;;12.75;;
75971;SDS011;64651;47.540;19.088;2023-03-19T20:29:00;22.77;;;12.15;;
75971;SDS011;64651;47.540;19.088;2023-03-19T20:34:03;28.27;;;13.20;;
75971;SDS011;64651;47.540;19.088;2023-03-19T20:39:05;24.35;;;13.40;;
75971;SDS011;64651;47.540;19.088;2023-03-19T20:44:08;27.67;;;13.43;;
75971;SDS011;64651;47.540;19.088;2023-03-19T20:49:22;26.73;;;13.88;;
75971;SDS011;64651;47.540;19.088;2023-03-19T20:54:25;25.92;;;14.02;;
75971;SDS011;64651;47.540;19.088;2023-03-19T20:59:28;27.07;;;13.73;;
75971;SDS011;64651;47.540;19.088;2023-03-19T21:04:31;26.10;;;13.95;;
75971;SDS011;64651;47.540;19.088;2023-03-19T21:09:34;27.13;;;14.23;;
75971;SDS011;64651;47.540;19.088;2023-03-19T21:14:36;26.87;;;14.82;;
75971;SDS011;64651;47.540;19.088;2023-03-19T21:19:38;27.75;;;14.93;;
75971;SDS011;64651;47.540;19.088;2023-03-19T21:24:43;26.52;;;14.25;;
75971;SDS011;64651;47.540;19.088;2023-03-19T21:29:45;25.45;;;14.45;;
75971;SDS011;64651;47.540;19.088;2023-03-19T21:34:48;26.80;;;14.10;;
75971;SDS011;64651;47.540;19.088;2023-03-19T21:39:53;27.58;;;14.38;;
75971;SDS011;64651;47.540;19.088;2023-03-19T21:44:56;28.67;;;14.32;;
75971;SDS011;64651;47.540;19.088;2023-03-19T21:50:00;26.77;;;14.40;;
75971;SDS011;64651;47.540;19.088;2023-03-19T21:55:03;26.50;;;14.18;;
75971;SDS011;64651;47.540;19.088;2023-03-19T22:00:09;25.13;;;13.17;;
75971;SDS011;64651;47.540;19.088;2023-03-19T22:05:14;25.67;;;14.05;;
75971;SDS011;64651;47.540;19.088;2023-03-19T22:10:20;25.88;;;13.60;;
75971;SDS011;64651;47.540;19.088;2023-03-19T22:15:28;24.77;;;13.85;;
75971;SDS011;64651;47.540;19.088;2023-03-19T22:20:31;25.05;;;13.62;;
75971;SDS011;64651;47.540;19.088;2023-03-19T22:25:33;25.97;;;14.03;;
75971;SDS011;64651;47.540;19.088;2023-03-19T22:30:41;26.60;;;13.70;;
75971;SDS011;64651;47.540;19.088;2023-03-19T22:35:44;25.88;;;13.90;;
75971;SDS011;64651;47.540;19.088;2023-03-19T22:40:47;29.05;;;15.75;;
75971;SDS011;64651;47.540;19.088;2023-03-19T22:45:59;25.85;;;14.52;;
75971;SDS011;64651;47.540;19.088;2023-03-19T22:51:08;26.90;;;14.27;;
75971;SDS011;64651;47.540;19.088;2023-03-19T22:56:16;26.70;;;14.55;;
75971;SDS011;64651;47.540;19.088;2023-03-19T23:06:23;24.80;;;13.18;;
75971;SDS011;64651;47.540;19.088;2023-03-19T23:11:31;25.30;;;12.85;;
75971;SDS011;64651;47.540;19.088;2023-03-19T23:16:34;23.67;;;13.30;;
75971;SDS011;64651;47.540;19.088;2023-03-19T23:21:38;25.77;;;13.95;;
75971;SDS011;64651;47.540;19.088;2023-03-19T23:26:42;24.37;;;12.37;;
75971;SDS011;64651;47.540;19.088;2023-03-19T23:31:46;25.60;;;12.90;;
75971;SDS011;64651;47.540;19.088;2023-03-19T23:36:49;27.33;;;13.65;;
75971;SDS011;64651;47.540;19.088;2023-03-19T23:41:53;26.07;;;12.83;;
75971;SDS011;64651;47.540;19.088;2023-03-19T23:46:59;24.35;;;11.73;;
75971;SDS011;64651;47.540;19.088;2023-03-19T23:52:03;22.75;;;11.93;;
75971;SDS011;64651;47.540;19.088;2023-03-19T23:57:06;21.17;;;11.77;;
